sensor_id;sensor_type;location;lat;lon;timestamp;temperature;humidity
5041;DHT22;2539;52.568;13.364;2023-06-26T00:00:01;19.80;99.90
5041;DHT22;2539;52.568;13.364;2023-06-26T00:02:30;19.80;99.90
5041;DHT22;2539;52.568;13.364;2023-06-26T00:04:58;19.80;99.90
5041;DHT22;2539;52.568;13.364;2023-06-26T00:07:29;19.80;99.90
5041;DHT22;2539;52.568;13.364;2023-06-26T00:09:57;19.80;99.90
5041;DHT22;2539;52.568;13.364;2023-06-26T00:12:23;19.70;99.90
5041;DHT22;2539;52.568;13.364;2023-06-26T00:14:50;19.70;99.90
5041;DHT22;2539;52.568;13.364;2023-06-26T00:17:16;19.70;99.90
5041;DHT22;2539;52.568;13.364;2023-06-26T00:19:49;19.70;99.90
5041;DHT22;2539;52.568;13.364;2023-06-26T00:22:16;19.60;99.90
5041;DHT22;2539;52.568;13.364;2023-06-26T00:24:44;19.60;99.90
5041;DHT22;2539;52.568;13.364;2023-06-26T00:27:11;19.60;99.90
5041;DHT22;2539;52.568;13.364;2023-06-26T00:29:39;19.60;99.90
5041;DHT22;2539;52.568;13.364;2023-06-26T00:32:07;19.60;99.90
5041;DHT22;2539;52.568;13.364;2023-06-26T00:34:34;19.60;99.90
5041;DHT22;2539;52.568;13.364;2023-06-26T00:37:01;19.50;99.90
5041;DHT22;2539;52.568;13.364;2023-06-26T00:39:27;19.50;99.90
5041;DHT22;2539;52.568;13.364;2023-06-26T00:41:53;19.50;99.90
5041;DHT22;2539;52.568;13.364;2023-06-26T00:44:20;19.60;99.90
5041;DHT22;2539;52.568;13.364;2023-06-26T00:46:47;19.60;99.90
5041;DHT22;2539;52.568;13.364;2023-06-26T00:49:13;19.60;99.90
5041;DHT22;2539;52.568;13.364;2023-06-26T00:51:40;19.70;99.90
5041;DHT22;2539;52.568;13.364;2023-06-26T00:54:07;19.70;99.90
5041;DHT22;2539;52.568;13.364;2023-06-26T00:56:34;19.70;99.90
5041;DHT22;2539;52.568;13.364;2023-06-26T00:59:01;19.70;99.90
5041;DHT22;2539;52.568;13.364;2023-06-26T01:01:27;19.80;99.90
5041;DHT22;2539;52.568;13.364;2023-06-26T01:03:53;19.90;99.90
5041;DHT22;2539;52.568;13.364;2023-06-26T01:06:22;19.90;99.90
5041;DHT22;2539;52.568;13.364;2023-06-26T01:08:49;19.90;99.90
5041;DHT22;2539;52.568;13.364;2023-06-26T01:11:16;20.00;99.90
5041;DHT22;2539;52.568;13.364;2023-06-26T01:13:43;20.00;99.90
5041;DHT22;2539;52.568;13.364;2023-06-26T01:16:13;20.00;99.90
5041;DHT22;2539;52.568;13.364;2023-06-26T01:18:40;20.00;99.90
5041;DHT22;2539;52.568;13.364;2023-06-26T01:21:09;20.00;99.90
5041;DHT22;2539;52.568;13.364;2023-06-26T01:23:47;20.00;99.90
5041;DHT22;2539;52.568;13.364;2023-06-26T01:26:21;20.00;99.90
5041;DHT22;2539;52.568;13.364;2023-06-26T01:28:50;20.00;99.90
5041;DHT22;2539;52.568;13.364;2023-06-26T01:31:17;20.00;99.90
5041;DHT22;2539;52.568;13.364;2023-06-26T01:33:45;20.00;99.90
5041;DHT22;2539;52.568;13.364;2023-06-26T01:36:12;20.00;99.90
5041;DHT22;2539;52.568;13.364;2023-06-26T01:38:38;20.00;99.90
5041;DHT22;2539;52.568;13.364;2023-06-26T01:41:05;20.00;99.90
5041;DHT22;2539;52.568;13.364;2023-06-26T01:43:46;20.00;99.90
5041;DHT22;2539;52.568;13.364;2023-06-26T01:46:25;20.00;99.90
5041;DHT22;2539;52.568;13.364;2023-06-26T01:57:31;20.00;99.90
5041;DHT22;2539;52.568;13.364;2023-06-26T01:59:58;20.00;99.90
5041;DHT22;2539;52.568;13.364;2023-06-26T02:02:25;19.90;99.90
5041;DHT22;2539;52.568;13.364;2023-06-26T02:04:51;20.00;99.90
5041;DHT22;2539;52.568;13.364;2023-06-26T02:07:18;19.90;99.90
5041;DHT22;2539;52.568;13.364;2023-06-26T02:09:44;19.90;99.90
5041;DHT22;2539;52.568;13.364;2023-06-26T02:12:10;20.00;99.90
5041;DHT22;2539;52.568;13.364;2023-06-26T02:14:36;20.00;99.90
5041;DHT22;2539;52.568;13.364;2023-06-26T02:17:03;20.00;99.90
5041;DHT22;2539;52.568;13.364;2023-06-26T02:19:29;20.00;99.90
5041;DHT22;2539;52.568;13.364;2023-06-26T02:21:55;19.90;99.90
5041;DHT22;2539;52.568;13.364;2023-06-26T02:24:22;19.90;99.90
5041;DHT22;2539;52.568;13.364;2023-06-26T02:26:48;19.90;99.90
5041;DHT22;2539;52.568;13.364;2023-06-26T02:29:15;19.90;99.90
5041;DHT22;2539;52.568;13.364;2023-06-26T02:31:41;19.80;99.90
5041;DHT22;2539;52.568;13.364;2023-06-26T02:34:08;19.80;99.90
5041;DHT22;2539;52.568;13.364;2023-06-26T02:36:34;19.80;99.90
5041;DHT22;2539;52.568;13.364;2023-06-26T02:39:00;19.80;99.90
5041;DHT22;2539;52.568;13.364;2023-06-26T02:41:26;19.70;99.90
5041;DHT22;2539;52.568;13.364;2023-06-26T02:43:53;19.70;99.90
5041;DHT22;2539;52.568;13.364;2023-06-26T02:46:19;19.70;99.90
5041;DHT22;2539;52.568;13.364;2023-06-26T02:48:45;19.70;99.90
5041;DHT22;2539;52.568;13.364;2023-06-26T02:51:11;19.70;99.90
5041;DHT22;2539;52.568;13.364;2023-06-26T02:53:38;19.60;99.90
5041;DHT22;2539;52.568;13.364;2023-06-26T02:56:04;19.50;99.90
5041;DHT22;2539;52.568;13.364;2023-06-26T02:58:30;19.40;99.90
5041;DHT22;2539;52.568;13.364;2023-06-26T03:00:56;19.50;99.90
5041;DHT22;2539;52.568;13.364;2023-06-26T03:03:23;19.40;99.90
5041;DHT22;2539;52.568;13.364;2023-06-26T03:05:49;19.40;99.90
5041;DHT22;2539;52.568;13.364;2023-06-26T03:08:15;19.40;99.90
5041;DHT22;2539;52.568;13.364;2023-06-26T03:10:42;19.40;99.90
5041;DHT22;2539;52.568;13.364;2023-06-26T03:13:08;19.30;99.90
5041;DHT22;2539;52.568;13.364;2023-06-26T03:15:34;19.30;99.90
5041;DHT22;2539;52.568;13.364;2023-06-26T03:18:01;19.30;99.90
5041;DHT22;2539;52.568;13.364;2023-06-26T03:20:27;19.30;99.90
5041;DHT22;2539;52.568;13.364;2023-06-26T03:22:53;19.30;99.90
5041;DHT22;2539;52.568;13.364;2023-06-26T03:25:20;19.20;99.90
5041;DHT22;2539;52.568;13.364;2023-06-26T03:27:46;19.30;99.90
5041;DHT22;2539;52.568;13.364;2023-06-26T03:30:12;19.30;99.90
5041;DHT22;2539;52.568;13.364;2023-06-26T03:32:39;19.20;99.90
5041;DHT22;2539;52.568;13.364;2023-06-26T03:35:05;19.30;99.90
5041;DHT22;2539;52.568;13.364;2023-06-26T03:37:32;19.30;99.90
5041;DHT22;2539;52.568;13.364;2023-06-26T03:39:58;19.40;99.90
5041;DHT22;2539;52.568;13.364;2023-06-26T03:42:24;19.40;99.90
5041;DHT22;2539;52.568;13.364;2023-06-26T03:44:50;19.50;99.90
5041;DHT22;2539;52.568;13.364;2023-06-26T03:47:17;19.50;99.90
5041;DHT22;2539;52.568;13.364;2023-06-26T03:49:43;19.50;99.90
5041;DHT22;2539;52.568;13.364;2023-06-26T03:52:09;19.70;99.90
5041;DHT22;2539;52.568;13.364;2023-06-26T03:54:35;19.70;99.90
5041;DHT22;2539;52.568;13.364;2023-06-26T03:57:02;19.80;99.90
5041;DHT22;2539;52.568;13.364;2023-06-26T03:59:28;20.00;99.90
5041;DHT22;2539;52.568;13.364;2023-06-26T04:01:54;20.30;99.90
5041;DHT22;2539;52.568;13.364;2023-06-26T04:04:21;20.40;99.90
5041;DHT22;2539;52.568;13.364;2023-06-26T04:06:47;20.50;99.90
5041;DHT22;2539;52.568;13.364;2023-06-26T04:09:13;20.90;99.90
5041;DHT22;2539;52.568;13.364;2023-06-26T04:11:39;21.70;99.90
5041;DHT22;2539;52.568;13.364;2023-06-26T04:14:06;22.70;99.90
5041;DHT22;2539;52.568;13.364;2023-06-26T04:16:32;23.80;99.90
5041;DHT22;2539;52.568;13.364;2023-06-26T04:18:58;24.80;99.90
5041;DHT22;2539;52.568;13.364;2023-06-26T04:21:24;24.80;99.90
5041;DHT22;2539;52.568;13.364;2023-06-26T04:23:51;24.20;99.90
5041;DHT22;2539;52.568;13.364;2023-06-26T04:26:17;23.60;99.90
5041;DHT22;2539;52.568;13.364;2023-06-26T04:28:43;23.00;99.90
5041;DHT22;2539;52.568;13.364;2023-06-26T04:31:10;22.70;99.90
5041;DHT22;2539;52.568;13.364;2023-06-26T04:33:37;22.50;99.90
5041;DHT22;2539;52.568;13.364;2023-06-26T04:36:06;22.40;99.90
5041;DHT22;2539;52.568;13.364;2023-06-26T04:38:33;22.30;99.90
5041;DHT22;2539;52.568;13.364;2023-06-26T04:41:00;22.20;99.90
5041;DHT22;2539;52.568;13.364;2023-06-26T04:43:27;22.20;99.90
5041;DHT22;2539;52.568;13.364;2023-06-26T04:45:53;22.20;99.90
5041;DHT22;2539;52.568;13.364;2023-06-26T04:48:19;22.20;99.90
5041;DHT22;2539;52.568;13.364;2023-06-26T04:50:46;22.20;99.90
5041;DHT22;2539;52.568;13.364;2023-06-26T04:53:22;22.20;99.90
5041;DHT22;2539;52.568;13.364;2023-06-26T04:55:50;22.10;99.90
5041;DHT22;2539;52.568;13.364;2023-06-26T04:58:16;22.10;99.90
5041;DHT22;2539;52.568;13.364;2023-06-26T05:00:42;22.00;99.90
5041;DHT22;2539;52.568;13.364;2023-06-26T05:03:11;22.00;99.90
5041;DHT22;2539;52.568;13.364;2023-06-26T05:05:38;22.20;99.90
5041;DHT22;2539;52.568;13.364;2023-06-26T05:08:24;22.50;99.90
5041;DHT22;2539;52.568;13.364;2023-06-26T05:10:52;22.80;99.90
5041;DHT22;2539;52.568;13.364;2023-06-26T05:13:25;23.00;99.90
5041;DHT22;2539;52.568;13.364;2023-06-26T05:15:52;23.20;99.90
5041;DHT22;2539;52.568;13.364;2023-06-26T05:18:19;23.50;99.90
5041;DHT22;2539;52.568;13.364;2023-06-26T05:20:45;23.60;99.90
5041;DHT22;2539;52.568;13.364;2023-06-26T05:23:12;23.80;99.90
5041;DHT22;2539;52.568;13.364;2023-06-26T05:25:39;23.90;99.90
5041;DHT22;2539;52.568;13.364;2023-06-26T05:28:06;24.00;99.90
5041;DHT22;2539;52.568;13.364;2023-06-26T05:30:35;24.00;99.90
5041;DHT22;2539;52.568;13.364;2023-06-26T05:33:02;24.00;99.90
5041;DHT22;2539;52.568;13.364;2023-06-26T05:35:29;23.90;99.90
5041;DHT22;2539;52.568;13.364;2023-06-26T05:37:57;23.80;99.90
5041;DHT22;2539;52.568;13.364;2023-06-26T05:40:24;23.80;99.90
5041;DHT22;2539;52.568;13.364;2023-06-26T05:42:50;23.60;99.90
5041;DHT22;2539;52.568;13.364;2023-06-26T05:45:16;23.50;99.90
5041;DHT22;2539;52.568;13.364;2023-06-26T05:47:43;23.40;99.90
5041;DHT22;2539;52.568;13.364;2023-06-26T05:50:09;23.20;99.90
5041;DHT22;2539;52.568;13.364;2023-06-26T05:52:36;23.20;99.90
5041;DHT22;2539;52.568;13.364;2023-06-26T05:55:05;23.20;99.90
5041;DHT22;2539;52.568;13.364;2023-06-26T05:57:32;23.20;99.90
5041;DHT22;2539;52.568;13.364;2023-06-26T05:59:58;23.20;99.90
5041;DHT22;2539;52.568;13.364;2023-06-26T06:02:24;23.30;99.90
5041;DHT22;2539;52.568;13.364;2023-06-26T06:04:51;23.30;99.90
5041;DHT22;2539;52.568;13.364;2023-06-26T06:07:17;23.40;99.90
5041;DHT22;2539;52.568;13.364;2023-06-26T06:09:43;23.40;99.90
5041;DHT22;2539;52.568;13.364;2023-06-26T06:12:10;23.50;99.90
5041;DHT22;2539;52.568;13.364;2023-06-26T06:14:36;23.50;99.90
5041;DHT22;2539;52.568;13.364;2023-06-26T06:17:02;23.50;99.90
5041;DHT22;2539;52.568;13.364;2023-06-26T06:19:28;23.60;99.90
5041;DHT22;2539;52.568;13.364;2023-06-26T06:21:55;23.60;99.90
5041;DHT22;2539;52.568;13.364;2023-06-26T06:24:21;23.60;99.90
5041;DHT22;2539;52.568;13.364;2023-06-26T06:26:47;23.70;99.90
5041;DHT22;2539;52.568;13.364;2023-06-26T06:29:13;23.80;99.90
5041;DHT22;2539;52.568;13.364;2023-06-26T06:31:40;23.80;99.90
5041;DHT22;2539;52.568;13.364;2023-06-26T06:34:06;23.80;99.90
5041;DHT22;2539;52.568;13.364;2023-06-26T06:36:32;23.90;99.90
5041;DHT22;2539;52.568;13.364;2023-06-26T06:38:58;24.00;99.90
5041;DHT22;2539;52.568;13.364;2023-06-26T06:41:25;24.10;99.90
5041;DHT22;2539;52.568;13.364;2023-06-26T06:43:51;24.10;99.90
5041;DHT22;2539;52.568;13.364;2023-06-26T06:46:18;24.10;99.90
5041;DHT22;2539;52.568;13.364;2023-06-26T06:48:44;24.10;99.90
5041;DHT22;2539;52.568;13.364;2023-06-26T06:51:12;24.10;99.90
5041;DHT22;2539;52.568;13.364;2023-06-26T06:53:37;24.20;99.90
5041;DHT22;2539;52.568;13.364;2023-06-26T06:56:03;24.30;99.90
5041;DHT22;2539;52.568;13.364;2023-06-26T06:58:29;24.40;99.90
5041;DHT22;2539;52.568;13.364;2023-06-26T07:00:57;24.50;99.90
5041;DHT22;2539;52.568;13.364;2023-06-26T07:03:23;24.50;99.90
5041;DHT22;2539;52.568;13.364;2023-06-26T07:05:49;24.60;99.90
5041;DHT22;2539;52.568;13.364;2023-06-26T07:08:18;24.60;99.90
5041;DHT22;2539;52.568;13.364;2023-06-26T07:10:45;24.70;99.90
5041;DHT22;2539;52.568;13.364;2023-06-26T07:13:11;24.70;99.90
5041;DHT22;2539;52.568;13.364;2023-06-26T07:15:37;24.70;99.90
5041;DHT22;2539;52.568;13.364;2023-06-26T07:18:04;24.70;99.90
5041;DHT22;2539;52.568;13.364;2023-06-26T07:20:30;24.80;99.90
5041;DHT22;2539;52.568;13.364;2023-06-26T07:22:56;24.80;99.90
5041;DHT22;2539;52.568;13.364;2023-06-26T07:25:22;24.90;99.90
5041;DHT22;2539;52.568;13.364;2023-06-26T07:27:49;24.90;99.90
5041;DHT22;2539;52.568;13.364;2023-06-26T07:30:15;25.00;99.90
5041;DHT22;2539;52.568;13.364;2023-06-26T07:32:44;25.00;99.90
5041;DHT22;2539;52.568;13.364;2023-06-26T07:35:10;25.10;99.90
5041;DHT22;2539;52.568;13.364;2023-06-26T07:37:37;25.20;99.90
5041;DHT22;2539;52.568;13.364;2023-06-26T07:40:03;25.30;99.90
5041;DHT22;2539;52.568;13.364;2023-06-26T07:42:29;25.30;99.90
5041;DHT22;2539;52.568;13.364;2023-06-26T07:44:54;25.30;99.90
5041;DHT22;2539;52.568;13.364;2023-06-26T07:47:20;25.40;99.90
5041;DHT22;2539;52.568;13.364;2023-06-26T07:49:46;25.40;99.90
5041;DHT22;2539;52.568;13.364;2023-06-26T07:52:13;25.40;99.90
5041;DHT22;2539;52.568;13.364;2023-06-26T07:54:41;25.50;99.90
5041;DHT22;2539;52.568;13.364;2023-06-26T07:57:07;25.50;99.90
5041;DHT22;2539;52.568;13.364;2023-06-26T07:59:34;25.60;99.90
5041;DHT22;2539;52.568;13.364;2023-06-26T08:02:01;25.60;99.90
5041;DHT22;2539;52.568;13.364;2023-06-26T08:04:28;25.60;99.90
5041;DHT22;2539;52.568;13.364;2023-06-26T08:06:59;25.70;99.90
5041;DHT22;2539;52.568;13.364;2023-06-26T08:09:27;25.80;99.90
5041;DHT22;2539;52.568;13.364;2023-06-26T08:11:54;25.80;99.90
5041;DHT22;2539;52.568;13.364;2023-06-26T08:14:21;25.90;99.90
5041;DHT22;2539;52.568;13.364;2023-06-26T08:16:47;25.90;99.90
5041;DHT22;2539;52.568;13.364;2023-06-26T08:19:15;25.90;99.90
5041;DHT22;2539;52.568;13.364;2023-06-26T08:21:42;25.90;99.90
5041;DHT22;2539;52.568;13.364;2023-06-26T08:24:10;25.90;99.90
5041;DHT22;2539;52.568;13.364;2023-06-26T08:26:36;26.00;99.90
5041;DHT22;2539;52.568;13.364;2023-06-26T08:29:03;26.00;99.90
5041;DHT22;2539;52.568;13.364;2023-06-26T08:31:36;26.00;99.90
5041;DHT22;2539;52.568;13.364;2023-06-26T08:34:04;26.00;99.90
5041;DHT22;2539;52.568;13.364;2023-06-26T08:36:31;26.10;99.90
5041;DHT22;2539;52.568;13.364;2023-06-26T08:38:57;26.20;99.90
5041;DHT22;2539;52.568;13.364;2023-06-26T08:41:24;26.30;99.90
5041;DHT22;2539;52.568;13.364;2023-06-26T08:43:51;26.40;99.90
5041;DHT22;2539;52.568;13.364;2023-06-26T08:46:19;26.40;99.90
5041;DHT22;2539;52.568;13.364;2023-06-26T08:48:49;26.40;99.90
5041;DHT22;2539;52.568;13.364;2023-06-26T08:51:21;26.50;99.90
5041;DHT22;2539;52.568;13.364;2023-06-26T08:53:56;26.50;99.90
5041;DHT22;2539;52.568;13.364;2023-06-26T08:56:22;26.60;99.90
5041;DHT22;2539;52.568;13.364;2023-06-26T08:58:50;26.70;99.90
5041;DHT22;2539;52.568;13.364;2023-06-26T09:01:16;26.70;99.90
5041;DHT22;2539;52.568;13.364;2023-06-26T09:03:43;26.70;99.90
5041;DHT22;2539;52.568;13.364;2023-06-26T09:06:09;26.80;99.90
5041;DHT22;2539;52.568;13.364;2023-06-26T09:08:35;26.90;99.90
5041;DHT22;2539;52.568;13.364;2023-06-26T09:11:00;26.90;99.90
5041;DHT22;2539;52.568;13.364;2023-06-26T09:13:29;26.90;99.90
5041;DHT22;2539;52.568;13.364;2023-06-26T09:15:56;26.90;99.90
5041;DHT22;2539;52.568;13.364;2023-06-26T09:18:22;26.90;99.90
5041;DHT22;2539;52.568;13.364;2023-06-26T09:20:50;27.00;99.90
5041;DHT22;2539;52.568;13.364;2023-06-26T09:23:16;27.10;99.90
5041;DHT22;2539;52.568;13.364;2023-06-26T09:25:43;27.10;99.90
5041;DHT22;2539;52.568;13.364;2023-06-26T09:28:11;27.20;99.90
5041;DHT22;2539;52.568;13.364;2023-06-26T09:30:37;27.10;99.70
5041;DHT22;2539;52.568;13.364;2023-06-26T09:35:40;27.30;99.80
5041;DHT22;2539;52.568;13.364;2023-06-26T09:38:07;27.30;99.90
5041;DHT22;2539;52.568;13.364;2023-06-26T09:40:33;27.40;99.90
5041;DHT22;2539;52.568;13.364;2023-06-26T09:43:09;27.40;99.70
5041;DHT22;2539;52.568;13.364;2023-06-26T09:45:39;27.40;98.90
5041;DHT22;2539;52.568;13.364;2023-06-26T09:48:07;27.40;99.10
5041;DHT22;2539;52.568;13.364;2023-06-26T09:50:41;27.50;98.90
5041;DHT22;2539;52.568;13.364;2023-06-26T09:53:09;27.60;98.40
5041;DHT22;2539;52.568;13.364;2023-06-26T09:55:36;27.60;98.80
5041;DHT22;2539;52.568;13.364;2023-06-26T09:58:03;27.60;97.90
5041;DHT22;2539;52.568;13.364;2023-06-26T10:00:31;27.50;98.70
5041;DHT22;2539;52.568;13.364;2023-06-26T10:03:00;27.50;98.10
5041;DHT22;2539;52.568;13.364;2023-06-26T10:05:27;27.60;98.10
5041;DHT22;2539;52.568;13.364;2023-06-26T10:07:54;27.60;98.20
5041;DHT22;2539;52.568;13.364;2023-06-26T10:10:23;27.60;98.40
5041;DHT22;2539;52.568;13.364;2023-06-26T10:12:54;27.70;98.40
5041;DHT22;2539;52.568;13.364;2023-06-26T10:15:23;27.80;98.10
5041;DHT22;2539;52.568;13.364;2023-06-26T10:17:50;27.90;97.70
5041;DHT22;2539;52.568;13.364;2023-06-26T10:20:17;27.90;97.90
5041;DHT22;2539;52.568;13.364;2023-06-26T10:22:45;28.00;97.50
5041;DHT22;2539;52.568;13.364;2023-06-26T10:25:16;28.10;97.70
5041;DHT22;2539;52.568;13.364;2023-06-26T10:27:47;28.10;98.00
5041;DHT22;2539;52.568;13.364;2023-06-26T10:30:19;28.10;97.40
5041;DHT22;2539;52.568;13.364;2023-06-26T10:32:46;28.10;97.60
5041;DHT22;2539;52.568;13.364;2023-06-26T10:35:13;28.10;97.90
5041;DHT22;2539;52.568;13.364;2023-06-26T10:37:48;28.20;97.70
5041;DHT22;2539;52.568;13.364;2023-06-26T10:40:24;28.30;97.80
5041;DHT22;2539;52.568;13.364;2023-06-26T10:42:51;28.40;97.80
5041;DHT22;2539;52.568;13.364;2023-06-26T10:45:33;28.40;97.60
5041;DHT22;2539;52.568;13.364;2023-06-26T10:48:00;28.40;97.70
5041;DHT22;2539;52.568;13.364;2023-06-26T10:50:28;28.30;98.00
5041;DHT22;2539;52.568;13.364;2023-06-26T10:53:14;28.20;98.20
5041;DHT22;2539;52.568;13.364;2023-06-26T10:55:55;28.50;97.90
5041;DHT22;2539;52.568;13.364;2023-06-26T10:58:41;28.60;97.70
5041;DHT22;2539;52.568;13.364;2023-06-26T11:01:20;28.60;97.70
5041;DHT22;2539;52.568;13.364;2023-06-26T11:06:21;28.80;97.30
5041;DHT22;2539;52.568;13.364;2023-06-26T11:08:52;28.90;96.80
5041;DHT22;2539;52.568;13.364;2023-06-26T11:11:22;28.90;97.00
5041;DHT22;2539;52.568;13.364;2023-06-26T11:14:08;28.90;96.50
5041;DHT22;2539;52.568;13.364;2023-06-26T11:16:36;29.00;96.50
5041;DHT22;2539;52.568;13.364;2023-06-26T11:19:02;29.00;95.90
5041;DHT22;2539;52.568;13.364;2023-06-26T11:21:29;29.10;96.40
5041;DHT22;2539;52.568;13.364;2023-06-26T11:23:57;29.20;96.10
5041;DHT22;2539;52.568;13.364;2023-06-26T11:26:26;29.30;96.00
5041;DHT22;2539;52.568;13.364;2023-06-26T11:28:55;29.30;96.00
5041;DHT22;2539;52.568;13.364;2023-06-26T11:31:28;29.40;95.70
5041;DHT22;2539;52.568;13.364;2023-06-26T11:34:00;29.40;95.60
5041;DHT22;2539;52.568;13.364;2023-06-26T11:36:27;29.60;95.60
5041;DHT22;2539;52.568;13.364;2023-06-26T11:39:01;29.80;95.30
5041;DHT22;2539;52.568;13.364;2023-06-26T11:41:30;29.80;95.00
5041;DHT22;2539;52.568;13.364;2023-06-26T11:44:08;29.80;94.60
5041;DHT22;2539;52.568;13.364;2023-06-26T11:46:36;29.60;94.10
5041;DHT22;2539;52.568;13.364;2023-06-26T11:49:03;29.40;94.80
5041;DHT22;2539;52.568;13.364;2023-06-26T11:51:30;29.60;95.10
5041;DHT22;2539;52.568;13.364;2023-06-26T11:53:56;29.70;95.10
5041;DHT22;2539;52.568;13.364;2023-06-26T11:56:23;29.90;94.50
5041;DHT22;2539;52.568;13.364;2023-06-26T11:59:06;29.90;94.40
5041;DHT22;2539;52.568;13.364;2023-06-26T12:01:43;29.90;94.50
5041;DHT22;2539;52.568;13.364;2023-06-26T12:04:11;29.70;94.20
5041;DHT22;2539;52.568;13.364;2023-06-26T12:06:40;29.60;94.20
5041;DHT22;2539;52.568;13.364;2023-06-26T12:09:09;29.60;93.80
5041;DHT22;2539;52.568;13.364;2023-06-26T12:11:38;29.60;94.00
5041;DHT22;2539;52.568;13.364;2023-06-26T12:14:06;29.60;94.40
5041;DHT22;2539;52.568;13.364;2023-06-26T12:16:34;29.70;94.10
5041;DHT22;2539;52.568;13.364;2023-06-26T12:19:02;29.80;94.10
5041;DHT22;2539;52.568;13.364;2023-06-26T12:24:04;29.80;93.90
5041;DHT22;2539;52.568;13.364;2023-06-26T12:26:31;29.90;93.70
5041;DHT22;2539;52.568;13.364;2023-06-26T12:29:06;29.90;93.40
5041;DHT22;2539;52.568;13.364;2023-06-26T12:31:33;29.90;93.10
5041;DHT22;2539;52.568;13.364;2023-06-26T12:34:00;29.60;93.80
5041;DHT22;2539;52.568;13.364;2023-06-26T12:36:26;29.30;93.70
5041;DHT22;2539;52.568;13.364;2023-06-26T12:38:54;29.40;93.70
5041;DHT22;2539;52.568;13.364;2023-06-26T12:41:23;29.40;93.80
5041;DHT22;2539;52.568;13.364;2023-06-26T12:43:55;29.80;93.20
5041;DHT22;2539;52.568;13.364;2023-06-26T12:46:33;29.90;92.90
5041;DHT22;2539;52.568;13.364;2023-06-26T12:49:01;30.10;92.80
5041;DHT22;2539;52.568;13.364;2023-06-26T12:51:27;30.20;92.60
5041;DHT22;2539;52.568;13.364;2023-06-26T12:53:54;30.20;92.40
5041;DHT22;2539;52.568;13.364;2023-06-26T12:56:20;30.40;92.30
5041;DHT22;2539;52.568;13.364;2023-06-26T12:58:46;30.40;92.00
5041;DHT22;2539;52.568;13.364;2023-06-26T13:01:13;30.20;92.00
5041;DHT22;2539;52.568;13.364;2023-06-26T13:03:43;30.20;92.50
5041;DHT22;2539;52.568;13.364;2023-06-26T13:06:09;30.10;92.70
5041;DHT22;2539;52.568;13.364;2023-06-26T13:08:35;30.10;92.80
5041;DHT22;2539;52.568;13.364;2023-06-26T13:11:02;30.10;92.70
5041;DHT22;2539;52.568;13.364;2023-06-26T13:13:28;30.10;92.70
5041;DHT22;2539;52.568;13.364;2023-06-26T13:15:55;29.90;92.60
5041;DHT22;2539;52.568;13.364;2023-06-26T13:18:21;29.90;92.70
5041;DHT22;2539;52.568;13.364;2023-06-26T13:20:47;29.90;92.90
5041;DHT22;2539;52.568;13.364;2023-06-26T13:23:13;29.90;92.80
5041;DHT22;2539;52.568;13.364;2023-06-26T13:25:40;29.90;92.70
5041;DHT22;2539;52.568;13.364;2023-06-26T13:28:06;29.80;93.10
5041;DHT22;2539;52.568;13.364;2023-06-26T13:30:32;29.60;93.20
5041;DHT22;2539;52.568;13.364;2023-06-26T13:32:59;29.50;93.30
5041;DHT22;2539;52.568;13.364;2023-06-26T13:35:25;29.30;93.40
5041;DHT22;2539;52.568;13.364;2023-06-26T13:37:52;29.10;93.40
5041;DHT22;2539;52.568;13.364;2023-06-26T13:40:18;29.00;93.60
5041;DHT22;2539;52.568;13.364;2023-06-26T13:42:44;28.80;93.60
5041;DHT22;2539;52.568;13.364;2023-06-26T13:45:11;28.80;93.90
5041;DHT22;2539;52.568;13.364;2023-06-26T13:47:38;28.80;94.10
5041;DHT22;2539;52.568;13.364;2023-06-26T13:50:09;28.80;93.80
5041;DHT22;2539;52.568;13.364;2023-06-26T13:52:35;28.80;93.70
5041;DHT22;2539;52.568;13.364;2023-06-26T13:55:02;28.90;93.60
5041;DHT22;2539;52.568;13.364;2023-06-26T13:57:31;28.80;94.00
5041;DHT22;2539;52.568;13.364;2023-06-26T13:59:58;28.60;94.20
5041;DHT22;2539;52.568;13.364;2023-06-26T14:02:24;28.50;94.00
5041;DHT22;2539;52.568;13.364;2023-06-26T14:04:50;28.40;94.60
5041;DHT22;2539;52.568;13.364;2023-06-26T14:07:17;28.30;95.20
5041;DHT22;2539;52.568;13.364;2023-06-26T14:09:43;28.10;94.90
5041;DHT22;2539;52.568;13.364;2023-06-26T14:12:09;28.00;94.90
5041;DHT22;2539;52.568;13.364;2023-06-26T14:14:36;27.90;95.10
5041;DHT22;2539;52.568;13.364;2023-06-26T14:17:02;27.80;96.20
5041;DHT22;2539;52.568;13.364;2023-06-26T14:19:28;27.20;97.60
5041;DHT22;2539;52.568;13.364;2023-06-26T14:21:55;26.40;99.90
5041;DHT22;2539;52.568;13.364;2023-06-26T14:24:21;25.00;99.90
5041;DHT22;2539;52.568;13.364;2023-06-26T14:26:47;23.20;99.90
5041;DHT22;2539;52.568;13.364;2023-06-26T14:29:13;21.30;99.90
5041;DHT22;2539;52.568;13.364;2023-06-26T14:31:43;20.70;99.90
5041;DHT22;2539;52.568;13.364;2023-06-26T14:34:09;20.50;99.90
5041;DHT22;2539;52.568;13.364;2023-06-26T14:36:36;20.30;99.90
5041;DHT22;2539;52.568;13.364;2023-06-26T14:39:03;20.40;99.90
5041;DHT22;2539;52.568;13.364;2023-06-26T14:41:30;20.40;99.90
5041;DHT22;2539;52.568;13.364;2023-06-26T14:43:56;20.40;99.90
5041;DHT22;2539;52.568;13.364;2023-06-26T14:46:22;20.40;99.90
5041;DHT22;2539;52.568;13.364;2023-06-26T14:48:48;20.40;99.90
5041;DHT22;2539;52.568;13.364;2023-06-26T14:51:15;20.30;99.90
5041;DHT22;2539;52.568;13.364;2023-06-26T14:53:41;20.50;99.90
5041;DHT22;2539;52.568;13.364;2023-06-26T14:56:08;20.50;99.90
5041;DHT22;2539;52.568;13.364;2023-06-26T14:58:34;20.60;99.90
5041;DHT22;2539;52.568;13.364;2023-06-26T15:01:00;20.40;99.90
5041;DHT22;2539;52.568;13.364;2023-06-26T15:03:26;20.50;99.90
5041;DHT22;2539;52.568;13.364;2023-06-26T15:05:53;20.00;99.90
5041;DHT22;2539;52.568;13.364;2023-06-26T15:08:19;19.50;99.90
5041;DHT22;2539;52.568;13.364;2023-06-26T15:10:45;19.10;99.90
5041;DHT22;2539;52.568;13.364;2023-06-26T15:13:11;19.10;99.90
5041;DHT22;2539;52.568;13.364;2023-06-26T15:15:38;18.80;99.90
5041;DHT22;2539;52.568;13.364;2023-06-26T15:18:04;18.70;99.90
5041;DHT22;2539;52.568;13.364;2023-06-26T15:20:32;18.50;99.90
5041;DHT22;2539;52.568;13.364;2023-06-26T15:22:58;18.60;99.90
5041;DHT22;2539;52.568;13.364;2023-06-26T15:25:24;18.40;99.90
5041;DHT22;2539;52.568;13.364;2023-06-26T15:27:51;18.50;99.90
5041;DHT22;2539;52.568;13.364;2023-06-26T15:30:17;18.50;99.90
5041;DHT22;2539;52.568;13.364;2023-06-26T15:32:43;18.80;99.90
5041;DHT22;2539;52.568;13.364;2023-06-26T15:35:10;18.90;99.90
5041;DHT22;2539;52.568;13.364;2023-06-26T15:37:36;18.70;99.90
5041;DHT22;2539;52.568;13.364;2023-06-26T15:40:02;18.80;99.90
5041;DHT22;2539;52.568;13.364;2023-06-26T15:42:29;18.70;99.90
5041;DHT22;2539;52.568;13.364;2023-06-26T15:44:55;18.80;99.90
5041;DHT22;2539;52.568;13.364;2023-06-26T15:47:22;19.00;99.90
5041;DHT22;2539;52.568;13.364;2023-06-26T15:49:48;18.90;99.90
5041;DHT22;2539;52.568;13.364;2023-06-26T15:52:14;19.00;99.90
5041;DHT22;2539;52.568;13.364;2023-06-26T15:54:41;19.10;99.90
5041;DHT22;2539;52.568;13.364;2023-06-26T15:57:07;19.10;99.90
5041;DHT22;2539;52.568;13.364;2023-06-26T15:59:33;19.10;99.90
5041;DHT22;2539;52.568;13.364;2023-06-26T16:02:00;19.20;99.90